createdAt,value
2017-09-12T00:00:03.298Z,76.30
2017-09-12T00:02:31.629Z,76.70
2017-09-12T00:04:59.836Z,76.60
2017-09-12T00:07:27.397Z,76.90
2017-09-12T00:09:55.061Z,77.10
2017-09-12T00:12:22.820Z,77.30
2017-09-12T00:14:50.400Z,77.60
2017-09-12T00:17:18.732Z,77.80
2017-09-12T00:19:46.419Z,77.80
2017-09-12T00:22:13.989Z,77.60
2017-09-12T00:24:41.853Z,77.60
2017-09-12T00:27:09.422Z,77.60
2017-09-12T00:29:37.797Z,77.20
2017-09-12T00:32:05.740Z,77.30
2017-09-12T00:34:33.332Z,77.20
2017-09-12T00:37:01.660Z,77.10
2017-09-12T00:39:29.316Z,77.10
2017-09-12T00:41:56.882Z,77.00
2017-09-12T00:44:24.456Z,77.00
2017-09-12T00:46:52.044Z,77.00
2017-09-12T00:49:19.617Z,77.00
2017-09-12T00:51:48.084Z,77.00
2017-09-12T00:54:15.685Z,77.00
2017-09-12T00:56:45.532Z,77.30
2017-09-12T00:59:13.220Z,77.20
2017-09-12T01:01:40.785Z,77.10
2017-09-12T01:04:08.756Z,77.20
2017-09-12T01:06:36.324Z,77.00
2017-09-12T01:09:03.894Z,77.10
2017-09-12T01:11:32.360Z,76.70
2017-09-12T01:14:00.705Z,76.80
2017-09-12T01:16:28.399Z,76.70
2017-09-12T01:18:55.972Z,76.90
2017-09-12T01:21:24.309Z,76.80
2017-09-12T01:23:51.896Z,76.80
2017-09-12T01:26:19.468Z,76.90
2017-09-12T01:28:47.840Z,77.40
2017-09-12T01:31:16.908Z,78.30
2017-09-12T01:33:46.237Z,77.40
2017-09-12T01:36:13.801Z,78.40
2017-09-12T01:38:41.456Z,77.90
2017-09-12T01:41:09.201Z,77.90
2017-09-12T01:43:36.779Z,78.30
2017-09-12T01:46:04.345Z,78.40
2017-09-12T01:48:31.940Z,78.90
2017-09-12T01:50:59.500Z,80.30
2017-09-12T01:53:27.088Z,80.50
2017-09-12T01:55:54.652Z,80.30
2017-09-12T01:58:22.237Z,80.40
2017-09-12T02:00:49.796Z,80.50
2017-09-12T02:03:17.473Z,80.70
2017-09-12T02:05:46.612Z,81.20
2017-09-12T02:08:14.896Z,81.20
2017-09-12T02:10:44.816Z,80.80
2017-09-12T02:13:12.400Z,80.70
2017-09-12T02:15:39.961Z,81.00
2017-09-12T02:18:08.016Z,81.00
2017-09-12T02:20:35.612Z,80.70
2017-09-12T02:23:03.940Z,80.80
2017-09-12T02:25:31.675Z,80.80
2017-09-12T02:28:00.036Z,81.00
2017-09-12T02:30:27.597Z,80.90
2017-09-12T02:32:55.263Z,80.80
2017-09-12T02:35:22.824Z,81.40
2017-09-12T02:37:51.469Z,81.90
2017-09-12T02:40:19.032Z,81.90
2017-09-12T02:42:46.593Z,82.20
2017-09-12T02:45:14.207Z,82.30
2017-09-12T02:47:43.484Z,82.90
2017-09-12T02:50:11.068Z,82.90
2017-09-12T02:52:39.393Z,82.90
2017-09-12T02:55:06.984Z,82.90
2017-09-12T02:57:34.544Z,83.10
2017-09-12T03:00:03.643Z,83.00
2017-09-12T03:02:31.219Z,83.00
2017-09-12T03:04:59.584Z,83.10
2017-09-12T03:07:27.348Z,83.10
2017-09-12T03:09:55.673Z,83.50
2017-09-12T03:12:23.236Z,83.50
2017-09-12T03:14:51.056Z,83.90
2017-09-12T03:17:18.616Z,83.80
2017-09-12T03:19:46.172Z,83.60
2017-09-12T03:22:13.789Z,83.60
2017-09-12T03:24:41.344Z,83.80
2017-09-12T03:27:08.904Z,84.20
2017-09-12T03:29:36.516Z,84.50
2017-09-12T03:32:04.081Z,84.40
2017-09-12T03:34:31.667Z,84.50
2017-09-12T03:36:59.997Z,85.40
2017-09-12T03:39:27.591Z,85.30
2017-09-12T03:41:55.962Z,85.80
2017-09-12T03:44:24.312Z,86.20
2017-09-12T03:46:51.880Z,86.20
2017-09-12T03:49:19.576Z,85.70
2017-09-12T03:51:47.910Z,85.20
2017-09-12T03:54:15.473Z,85.20
2017-09-12T03:56:44.884Z,84.60
2017-09-12T03:59:12.565Z,85.20
2017-09-12T04:01:40.160Z,84.90
2017-09-12T04:04:08.494Z,84.40
2017-09-12T04:06:36.076Z,84.30
2017-09-12T04:09:03.632Z,84.00
2017-09-12T04:11:31.324Z,83.60
2017-09-12T04:13:58.901Z,83.90
2017-09-12T04:16:26.513Z,83.60
2017-09-12T04:18:54.073Z,83.70
2017-09-12T04:21:21.633Z,83.60
2017-09-12T04:23:49.222Z,84.00
2017-09-12T04:26:17.661Z,84.80
2017-09-12T04:28:46.036Z,84.70
2017-09-12T04:31:14.026Z,84.30
2017-09-12T04:33:44.045Z,84.90
2017-09-12T04:36:11.610Z,84.90
2017-09-12T04:38:39.669Z,84.50
2017-09-12T04:41:07.232Z,85.00
2017-09-12T04:43:34.792Z,85.00
2017-09-12T04:46:02.388Z,84.50
2017-09-12T04:48:30.715Z,84.60
2017-09-12T04:50:59.128Z,84.60
2017-09-12T04:53:27.453Z,84.50
2017-09-12T04:55:55.040Z,84.50
2017-09-12T04:58:22.616Z,84.50
2017-09-12T05:00:50.212Z,84.60
2017-09-12T05:03:17.772Z,84.40
2017-09-12T05:05:45.916Z,84.20
2017-09-12T05:08:13.508Z,84.20
2017-09-12T05:10:41.128Z,84.00
2017-09-12T05:13:09.081Z,83.80
2017-09-12T05:15:36.875Z,83.60
2017-09-12T05:18:04.432Z,83.20
2017-09-12T05:20:32.092Z,82.70
2017-09-12T05:23:00.453Z,80.00
2017-09-12T05:25:28.016Z,80.00
2017-09-12T05:27:55.600Z,79.40
2017-09-12T05:30:23.937Z,78.60
2017-09-12T05:32:51.595Z,78.10
2017-09-12T05:35:19.159Z,78.10
2017-09-12T05:37:46.969Z,78.20
2017-09-12T05:40:14.532Z,78.40
2017-09-12T05:42:44.110Z,79.10
2017-09-12T05:45:11.701Z,78.90
2017-09-12T05:47:40.037Z,79.00
2017-09-12T05:50:07.732Z,78.90
2017-09-12T05:52:35.396Z,79.00
2017-09-12T05:55:02.987Z,78.90
2017-09-12T05:57:30.548Z,77.60
2017-09-12T05:59:58.136Z,75.40
2017-09-12T06:02:25.701Z,75.00
2017-09-12T06:04:53.293Z,75.30
2017-09-12T06:07:20.859Z,74.80
2017-09-12T06:09:48.756Z,73.90
2017-09-12T06:12:16.332Z,70.10
2017-09-12T06:14:43.959Z,68.70
2017-09-12T06:17:12.324Z,65.90
2017-09-12T06:19:39.886Z,65.20
2017-09-12T06:22:09.575Z,61.80
2017-09-12T06:24:37.156Z,61.80
2017-09-12T06:27:04.716Z,60.80
2017-09-12T06:29:32.314Z,61.10
2017-09-12T06:31:59.950Z,59.90
2017-09-12T06:34:27.563Z,60.00
2017-09-12T06:36:55.169Z,58.60
2017-09-12T06:39:23.508Z,56.20
2017-09-12T06:41:51.099Z,56.10
2017-09-12T06:44:18.660Z,55.00
2017-09-12T06:46:46.460Z,54.30
2017-09-12T06:49:14.808Z,57.30
2017-09-12T06:51:43.908Z,59.20
2017-09-12T06:54:11.567Z,59.10
2017-09-12T06:56:39.230Z,61.10
2017-09-12T06:59:06.800Z,63.40
2017-09-12T07:01:35.993Z,65.30
2017-09-12T07:04:03.561Z,65.20
2017-09-12T07:06:32.217Z,67.10
2017-09-12T07:08:59.813Z,66.90
2017-09-12T07:11:28.149Z,67.60
2017-09-12T07:13:55.737Z,67.70
2017-09-12T07:16:23.301Z,67.60
2017-09-12T07:18:50.969Z,67.70
2017-09-12T07:21:18.532Z,68.20
2017-09-12T07:23:47.444Z,68.40
2017-09-12T07:26:15.777Z,68.80
2017-09-12T07:28:43.917Z,68.70
2017-09-12T07:31:11.525Z,69.10
2017-09-12T07:33:39.856Z,69.10
2017-09-12T07:36:07.444Z,69.10
2017-09-12T07:38:35.013Z,69.20
2017-09-12T07:41:02.692Z,69.00
2017-09-12T07:43:30.252Z,68.40
2017-09-12T07:45:57.857Z,68.80
2017-09-12T07:48:25.416Z,68.90
2017-09-12T07:50:53.028Z,68.10
2017-09-12T07:53:20.592Z,67.20
2017-09-12T07:55:48.161Z,68.00
2017-09-12T07:58:16.516Z,67.20
2017-09-12T08:00:45.124Z,67.00
2017-09-12T08:03:12.713Z,65.70
2017-09-12T08:05:40.277Z,64.50
2017-09-12T08:08:08.097Z,63.10
2017-09-12T08:10:35.669Z,62.60
2017-09-12T08:13:03.612Z,62.60
2017-09-12T08:15:31.192Z,63.40
2017-09-12T08:17:58.757Z,62.80
2017-09-12T08:20:26.340Z,60.90
2017-09-12T08:22:54.683Z,60.90
2017-09-12T08:25:22.269Z,60.90
2017-09-12T08:27:50.600Z,63.80
2017-09-12T08:30:18.193Z,63.60
2017-09-12T08:32:45.963Z,64.00
2017-09-12T08:35:13.548Z,63.90
2017-09-12T08:37:41.899Z,64.80
2017-09-12T08:40:09.505Z,64.80
2017-09-12T08:42:37.064Z,65.10
2017-09-12T08:45:04.631Z,65.30
2017-09-12T08:47:32.220Z,65.00
2017-09-12T08:49:59.804Z,64.30
2017-09-12T08:52:27.390Z,63.90
2017-09-12T08:54:55.731Z,64.80
2017-09-12T08:57:23.336Z,64.80
2017-09-12T08:59:51.684Z,65.40
2017-09-12T09:02:20.032Z,65.10
2017-09-12T09:04:47.596Z,65.10
2017-09-12T09:07:15.303Z,65.00
2017-09-12T09:09:43.060Z,64.80
2017-09-12T09:12:10.666Z,64.50
2017-09-12T09:14:38.241Z,65.10
2017-09-12T09:17:05.806Z,64.10
2017-09-12T09:19:33.493Z,63.50
2017-09-12T09:22:01.860Z,61.80
2017-09-12T09:24:29.536Z,61.60
2017-09-12T09:26:57.099Z,59.50
2017-09-12T09:29:24.690Z,56.80
2017-09-12T09:31:53.040Z,55.60
2017-09-12T09:34:21.416Z,55.10
2017-09-12T09:36:48.981Z,55.20
2017-09-12T09:39:17.308Z,56.50
2017-09-12T09:41:46.153Z,56.50
2017-09-12T09:44:13.808Z,57.20
2017-09-12T09:46:41.467Z,57.10
2017-09-12T09:49:09.028Z,57.40
2017-09-12T09:51:36.615Z,57.30
2017-09-12T09:54:04.948Z,57.40
2017-09-12T09:56:32.540Z,57.40
2017-09-12T09:59:00.104Z,57.30
2017-09-12T10:01:28.466Z,57.70
2017-09-12T10:03:57.541Z,58.30
2017-09-12T10:06:25.234Z,58.20
2017-09-12T10:08:52.801Z,57.30
2017-09-12T10:11:21.276Z,58.00
2017-09-12T10:13:48.946Z,57.80
2017-09-12T10:16:17.277Z,55.90
2017-09-12T10:18:44.976Z,55.80
2017-09-12T10:21:14.049Z,50.60
2017-09-12T10:23:41.633Z,50.60
2017-09-12T10:26:09.192Z,50.40
2017-09-12T10:28:36.856Z,51.50
2017-09-12T10:31:04.857Z,53.20
2017-09-12T10:33:33.212Z,46.60
2017-09-12T10:36:00.784Z,46.60
2017-09-12T10:38:29.135Z,50.20
2017-09-12T10:40:56.705Z,50.10
2017-09-12T10:43:24.269Z,52.40
2017-09-12T10:45:51.877Z,52.90
2017-09-12T10:48:19.488Z,49.80
2017-09-12T10:50:47.836Z,42.10
2017-09-12T10:53:15.717Z,42.10
2017-09-12T10:55:44.969Z,42.60
2017-09-12T10:58:13.296Z,42.00
2017-09-12T11:00:40.880Z,41.90
2017-09-12T11:03:08.449Z,41.20
2017-09-12T11:05:36.920Z,39.10
2017-09-12T11:08:04.586Z,38.50
2017-09-12T11:10:33.652Z,36.90
2017-09-12T11:13:01.232Z,36.80
2017-09-12T11:15:29.560Z,35.90
2017-09-12T11:17:57.176Z,35.90
2017-09-12T11:20:24.739Z,38.20
2017-09-12T11:22:52.336Z,40.50
2017-09-12T11:25:19.957Z,43.20
2017-09-12T11:27:47.564Z,44.30
2017-09-12T11:30:15.132Z,44.00
2017-09-12T11:32:44.856Z,46.10
2017-09-12T11:35:12.440Z,45.90
2017-09-12T11:37:40.004Z,46.90
2017-09-12T11:40:07.676Z,48.00
2017-09-12T11:42:35.249Z,48.30
2017-09-12T11:45:03.600Z,50.20
2017-09-12T11:47:32.001Z,51.20
2017-09-12T11:49:59.604Z,51.10
2017-09-12T11:52:27.216Z,52.00
2017-09-12T11:54:54.879Z,52.40
2017-09-12T11:57:22.474Z,53.10
2017-09-12T11:59:50.805Z,50.40
2017-09-12T12:02:18.389Z,50.30
2017-09-12T12:04:45.956Z,47.10
2017-09-12T12:07:14.311Z,46.40
2017-09-12T12:09:41.873Z,46.40
2017-09-12T12:12:09.455Z,47.00
2017-09-12T12:14:37.785Z,44.50
2017-09-12T12:17:05.401Z,43.90
2017-09-12T12:19:33.765Z,44.70
2017-09-12T12:22:02.147Z,45.60
2017-09-12T12:24:29.800Z,45.00
2017-09-12T12:26:57.464Z,46.50
2017-09-12T12:29:25.128Z,48.40
2017-09-12T12:31:54.204Z,45.40
2017-09-12T12:34:21.820Z,45.40
2017-09-12T12:36:49.451Z,40.50
2017-09-12T12:39:17.117Z,37.50
2017-09-12T12:41:45.713Z,32.30
2017-09-12T12:44:14.072Z,36.20
2017-09-12T12:46:41.654Z,36.00
2017-09-12T12:49:09.989Z,40.30
2017-09-12T12:51:37.581Z,40.20
2017-09-12T12:54:05.149Z,41.90
2017-09-12T12:56:33.519Z,43.30
2017-09-12T12:59:01.080Z,43.30
2017-09-12T13:01:28.736Z,44.00
2017-09-12T13:03:56.299Z,44.80
2017-09-12T13:06:25.394Z,45.70
2017-09-12T13:08:53.060Z,45.70
2017-09-12T13:11:20.661Z,46.10
2017-09-12T13:13:48.224Z,47.50
2017-09-12T13:16:15.797Z,48.40
2017-09-12T13:18:44.824Z,49.10
2017-09-12T13:21:12.387Z,49.10
2017-09-12T13:23:39.980Z,50.50
2017-09-12T13:26:08.308Z,50.60
2017-09-12T13:28:35.991Z,51.10
2017-09-12T13:31:03.667Z,50.40
2017-09-12T13:33:31.318Z,50.40
2017-09-12T13:35:59.700Z,49.70
2017-09-12T13:38:27.381Z,49.60
2017-09-12T13:40:55.732Z,47.70
2017-09-12T13:43:23.297Z,47.60
2017-09-12T13:45:50.904Z,46.60
2017-09-12T13:48:18.482Z,44.90
2017-09-12T13:50:46.046Z,43.00
2017-09-12T13:53:13.784Z,41.20
2017-09-12T13:55:41.343Z,40.00
2017-09-12T13:58:08.908Z,39.90
2017-09-12T14:00:36.533Z,40.70
2017-09-12T14:03:04.200Z,40.30
2017-09-12T14:05:31.772Z,41.30
2017-09-12T14:08:00.444Z,44.10
2017-09-12T14:10:28.009Z,44.00
2017-09-12T14:12:55.597Z,43.40
2017-09-12T14:15:23.224Z,44.20
2017-09-12T14:17:51.258Z,41.30
2017-09-12T14:20:18.858Z,42.80
2017-09-12T14:22:46.429Z,44.10
2017-09-12T14:25:14.800Z,44.40
2017-09-12T14:27:44.673Z,44.50
2017-09-12T14:30:12.272Z,43.90
2017-09-12T14:32:39.834Z,43.80
2017-09-12T14:35:07.604Z,43.60
2017-09-12T14:37:35.169Z,42.20
2017-09-12T14:40:03.504Z,45.60
2017-09-12T14:42:31.105Z,45.60
2017-09-12T14:44:58.685Z,46.90
2017-09-12T14:47:27.026Z,43.40
2017-09-12T14:49:55.009Z,43.40
2017-09-12T14:52:22.668Z,39.90
2017-09-12T14:54:50.232Z,39.90
2017-09-12T14:57:17.816Z,42.20
2017-09-12T14:59:45.677Z,43.70
2017-09-12T15:02:14.240Z,46.00
2017-09-12T15:04:41.806Z,46.00
2017-09-12T15:07:09.376Z,46.90
2017-09-12T15:09:38.032Z,44.50
2017-09-12T15:12:05.604Z,44.50
2017-09-12T15:14:34.800Z,46.00
2017-09-12T15:17:03.136Z,44.10
2017-09-12T15:19:30.736Z,44.20
2017-09-12T15:21:58.300Z,42.80
2017-09-12T15:24:26.157Z,40.60
2017-09-12T15:26:54.124Z,40.50
2017-09-12T15:29:21.711Z,40.20
2017-09-12T15:31:49.377Z,41.00
2017-09-12T15:34:16.980Z,41.00
2017-09-12T15:36:46.721Z,41.30
2017-09-12T15:39:14.280Z,41.30
2017-09-12T15:41:41.964Z,41.80
2017-09-12T15:44:09.528Z,41.90
2017-09-12T15:46:38.189Z,42.90
2017-09-12T15:49:05.752Z,42.90
2017-09-12T15:51:33.320Z,42.90
2017-09-12T15:54:00.912Z,43.30
2017-09-12T15:56:29.272Z,44.10
2017-09-12T15:58:56.864Z,44.10
2017-09-12T16:01:25.221Z,44.40
2017-09-12T16:03:52.880Z,44.40
2017-09-12T16:06:20.448Z,45.10
2017-09-12T16:08:49.020Z,47.60
2017-09-12T16:11:16.581Z,47.00
2017-09-12T16:13:46.668Z,47.00
2017-09-12T16:16:14.252Z,46.80
2017-09-12T16:18:41.816Z,46.20
2017-09-12T16:21:09.429Z,46.60
2017-09-12T16:23:36.993Z,46.70
2017-09-12T16:26:04.603Z,46.20
2017-09-12T16:28:32.268Z,47.10
2017-09-12T16:30:59.933Z,47.90
2017-09-12T16:33:27.588Z,48.80
2017-09-12T16:35:55.257Z,50.10
2017-09-12T16:38:23.646Z,51.50
2017-09-12T16:40:52.228Z,52.50
2017-09-12T16:43:19.801Z,51.80
2017-09-12T16:45:48.132Z,53.30
2017-09-12T16:48:15.733Z,53.30
2017-09-12T16:50:44.928Z,54.30
2017-09-12T16:53:13.303Z,55.50
2017-09-12T16:55:40.868Z,55.40
2017-09-12T16:58:08.516Z,55.80
2017-09-12T17:00:36.105Z,56.10
2017-09-12T17:03:04.443Z,56.80
2017-09-12T17:05:32.047Z,56.80
2017-09-12T17:08:00.381Z,57.50
2017-09-12T17:10:27.976Z,57.50
2017-09-12T17:12:56.309Z,58.10
2017-09-12T17:15:24.212Z,58.10
2017-09-12T17:17:51.778Z,58.30
2017-09-12T17:20:20.142Z,58.90
2017-09-12T17:22:47.712Z,58.80
2017-09-12T17:25:15.328Z,59.10
2017-09-12T17:27:43.089Z,59.70
2017-09-12T17:30:10.654Z,59.80
2017-09-12T17:32:38.252Z,60.30
2017-09-12T17:35:05.921Z,60.50
2017-09-12T17:37:33.496Z,61.00
2017-09-12T17:40:01.877Z,61.90
2017-09-12T17:42:30.204Z,62.40
2017-09-12T17:44:57.800Z,62.40
2017-09-12T17:47:26.172Z,62.90
2017-09-12T17:49:53.848Z,63.20
2017-09-12T17:52:21.414Z,63.70
2017-09-12T17:54:49.782Z,64.70
2017-09-12T17:57:17.449Z,64.60
2017-09-12T17:59:45.731Z,65.10
2017-09-12T18:02:14.069Z,65.60
2017-09-12T18:04:41.656Z,65.50
2017-09-12T18:07:09.588Z,66.40
2017-09-12T18:09:38.260Z,66.90
2017-09-12T18:12:05.834Z,66.90
2017-09-12T18:14:33.405Z,67.10
2017-09-12T18:17:01.096Z,67.50
2017-09-12T18:19:28.655Z,68.50
2017-09-12T18:21:56.420Z,69.10
2017-09-12T18:24:23.992Z,69.70
2017-09-12T18:26:51.561Z,70.10
2017-09-12T18:29:19.921Z,71.00
2017-09-12T18:31:47.488Z,70.90
2017-09-12T18:34:15.081Z,71.00
2017-09-12T18:36:43.835Z,71.90
2017-09-12T18:39:11.424Z,71.90
2017-09-12T18:41:39.778Z,72.60
2017-09-12T18:44:07.369Z,72.60
2017-09-12T18:46:34.950Z,73.90
2017-09-12T18:49:02.588Z,73.10
2017-09-12T18:51:30.216Z,73.30
2017-09-12T18:53:57.779Z,73.70
2017-09-12T18:56:25.625Z,74.00
2017-09-12T18:58:53.196Z,74.50
2017-09-12T19:01:20.867Z,74.40
2017-09-12T19:03:49.944Z,75.00
2017-09-12T19:06:17.508Z,75.00
2017-09-12T19:08:46.479Z,74.90
2017-09-12T19:11:14.046Z,75.30
2017-09-12T19:13:41.608Z,76.00
2017-09-12T19:16:09.204Z,75.90
2017-09-12T19:18:40.749Z,76.20
2017-09-12T19:21:09.116Z,76.20
2017-09-12T19:23:36.978Z,76.20
2017-09-12T19:26:04.544Z,76.40
2017-09-12T19:28:32.164Z,76.50
2017-09-12T19:30:59.725Z,76.50
2017-09-12T19:33:27.292Z,76.50
2017-09-12T19:35:54.884Z,76.70
2017-09-12T19:38:22.445Z,76.50
2017-09-12T19:40:50.033Z,76.60
2017-09-12T19:43:17.600Z,76.30
2017-09-12T19:45:45.857Z,75.80
2017-09-12T19:48:13.432Z,76.70
2017-09-12T19:50:41.015Z,76.80
2017-09-12T19:53:09.360Z,77.10
2017-09-12T19:55:37.077Z,77.00
2017-09-12T19:58:04.640Z,76.80
2017-09-12T20:00:32.341Z,76.90
2017-09-12T20:02:59.912Z,77.10
2017-09-12T20:05:27.504Z,76.90
2017-09-12T20:07:55.078Z,76.70
2017-09-12T20:10:22.692Z,76.50
2017-09-12T20:12:50.280Z,76.60
2017-09-12T20:15:18.696Z,75.40
2017-09-12T20:17:46.304Z,75.40
2017-09-12T20:20:13.869Z,75.20
2017-09-12T20:22:43.540Z,75.10
2017-09-12T20:25:11.108Z,75.10
2017-09-12T20:27:38.668Z,75.20
2017-09-12T20:30:06.262Z,74.80
2017-09-12T20:32:34.601Z,74.30
2017-09-12T20:35:02.297Z,74.20
2017-09-12T20:37:29.860Z,74.40
2017-09-12T20:39:57.452Z,74.50
2017-09-12T20:42:25.013Z,74.60
2017-09-12T20:44:52.604Z,75.70
2017-09-12T20:47:20.172Z,76.00
2017-09-12T20:49:47.737Z,76.00
2017-09-12T20:52:15.472Z,76.30
2017-09-12T20:54:43.870Z,76.50
2017-09-12T20:57:11.430Z,76.40
2017-09-12T20:59:39.225Z,76.50
2017-09-12T21:02:06.805Z,76.80
2017-09-12T21:04:35.140Z,77.10
2017-09-12T21:07:02.734Z,77.10
2017-09-12T21:09:30.687Z,77.30
2017-09-12T21:11:58.511Z,77.70
2017-09-12T21:14:26.068Z,77.90
2017-09-12T21:16:53.624Z,78.20
2017-09-12T21:19:21.448Z,78.30
2017-09-12T21:21:49.021Z,79.30
2017-09-12T21:24:17.345Z,78.70
2017-09-12T21:26:45.796Z,78.60
2017-09-12T21:29:14.145Z,78.80
2017-09-12T21:31:41.704Z,78.70
2017-09-12T21:34:09.285Z,78.80
2017-09-12T21:36:37.614Z,79.70
2017-09-12T21:39:05.201Z,79.60
2017-09-12T21:41:32.761Z,80.10
2017-09-12T21:44:00.349Z,79.60
2017-09-12T21:46:28.674Z,79.60
2017-09-12T21:48:56.259Z,79.60
2017-09-12T21:51:23.928Z,79.60
2017-09-12T21:53:51.696Z,79.50
2017-09-12T21:56:19.257Z,79.80
2017-09-12T21:58:46.811Z,79.90
2017-09-12T22:01:14.417Z,80.00
2017-09-12T22:03:42.927Z,80.10
2017-09-12T22:06:10.486Z,80.00
2017-09-12T22:08:38.068Z,80.30
2017-09-12T22:11:05.636Z,80.40
2017-09-12T22:13:34.120Z,80.40
2017-09-12T22:16:01.684Z,80.40
2017-09-12T22:18:30.012Z,80.80
2017-09-12T22:20:57.604Z,80.80
2017-09-12T22:23:25.180Z,81.00
2017-09-12T22:25:52.740Z,81.40
2017-09-12T22:28:20.588Z,81.60
2017-09-12T22:30:48.165Z,81.30
2017-09-12T22:33:15.837Z,81.90
2017-09-12T22:35:44.933Z,82.00
2017-09-12T22:38:12.777Z,82.10
2017-09-12T22:40:40.351Z,82.20
2017-09-12T22:43:07.937Z,82.50
2017-09-12T22:45:36.297Z,82.50
2017-09-12T22:48:03.893Z,82.40
2017-09-12T22:50:31.452Z,82.90
2017-09-12T22:52:59.012Z,82.70
2017-09-12T22:55:26.597Z,83.10
2017-09-12T22:57:54.157Z,83.40
2017-09-12T23:00:21.760Z,83.00
2017-09-12T23:02:49.321Z,83.00
2017-09-12T23:05:17.856Z,83.60
2017-09-12T23:07:46.694Z,82.90
2017-09-12T23:10:15.040Z,82.80
2017-09-12T23:12:44.744Z,83.50
2017-09-12T23:15:12.344Z,82.80
2017-09-12T23:17:39.904Z,83.00
2017-09-12T23:20:07.465Z,83.10
2017-09-12T23:22:35.065Z,83.10
2017-09-12T23:25:02.623Z,83.30
2017-09-12T23:27:30.183Z,83.40
2017-09-12T23:29:57.908Z,83.40
2017-09-12T23:32:25.468Z,84.70
2017-09-12T23:34:53.028Z,85.30
2017-09-12T23:37:21.375Z,85.10
2017-09-12T23:39:48.932Z,85.20
2017-09-12T23:42:16.519Z,85.20
2017-09-12T23:44:44.991Z,85.20
2017-09-12T23:47:12.559Z,85.20
2017-09-12T23:49:40.421Z,85.20
2017-09-12T23:52:07.984Z,84.80
2017-09-12T23:54:35.544Z,85.10
2017-09-12T23:57:03.235Z,85.30
2017-09-12T23:59:30.795Z,86.00
